Terminal Aerodrome Forecast
Issued by NWS Greer, SC

Home | Current Version | Previous Version | Text Only | Print | Product List | Glossary On
Versions: 1 2 3 4 5 6 7 8 9 10 11 12 13 14 15 16 17 18 19 20 21
000
FTUS42 KGSP 030224 AAB
TAFGSP
TAF AMD
KGSP 030224Z 0302/0324 04005KT P6SM SCT060 BKN250
     FM030500 05008KT P6SM VCSH OVC030
     FM030800 05007KT 5SM -RA OVC015
     FM031200 04007KT 4SM -RA OVC008
     FM032000 06003KT P6SM -RA OVC008=

USA.gov is the U.S. government's official web portal to all federal, state and local government web resources and services.